createdAt,value
2023-08-04T00:02:02.832Z,31.00
2023-08-04T00:04:30.108Z,30.47
2023-08-04T00:06:57.338Z,30.88
2023-08-04T00:09:24.684Z,31.10
2023-08-04T00:11:51.906Z,31.15
2023-08-04T00:14:19.118Z,31.18
2023-08-04T00:16:46.353Z,30.78
2023-08-04T00:19:13.592Z,30.68
2023-08-04T00:21:40.798Z,30.77
2023-08-04T00:24:08.008Z,31.42
2023-08-04T00:26:35.354Z,31.36
2023-08-04T00:29:02.562Z,31.97
2023-08-04T00:31:29.873Z,30.98
2023-08-04T00:33:57.112Z,31.28
2023-08-04T00:36:24.401Z,31.89
2023-08-04T00:38:51.594Z,31.24
2023-08-04T00:41:18.873Z,31.20
2023-08-04T00:43:46.113Z,31.18
2023-08-04T00:46:13.399Z,31.77
2023-08-04T00:48:40.633Z,31.51
2023-08-04T00:51:07.872Z,31.57
2023-08-04T00:53:35.247Z,31.12
2023-08-04T00:56:02.674Z,30.85
2023-08-04T00:58:30.653Z,31.37
2023-08-04T01:00:57.907Z,31.35
2023-08-04T01:03:25.658Z,31.19
2023-08-04T01:06:15.413Z,31.47
2023-08-04T01:08:48.545Z,31.27
2023-08-04T01:11:19.289Z,31.34
2023-08-04T01:13:47.901Z,31.10
2023-08-04T01:16:15.308Z,31.22
2023-08-04T01:18:43.924Z,31.20
2023-08-04T01:21:11.261Z,31.28
2023-08-04T01:23:38.503Z,31.43
2023-08-04T01:26:08.183Z,31.28
2023-08-04T01:28:35.620Z,30.74
2023-08-04T01:31:03.134Z,30.96
2023-08-04T01:33:31.083Z,31.28
2023-08-04T01:35:58.385Z,30.99
2023-08-04T01:38:25.624Z,31.14
2023-08-04T01:40:52.950Z,31.00
2023-08-04T01:43:21.358Z,31.50
2023-08-04T01:45:48.781Z,31.15
2023-08-04T01:48:16.039Z,31.59
2023-08-04T01:50:44.125Z,31.42
2023-08-04T01:53:11.372Z,31.35
2023-08-04T01:55:40.016Z,31.77
2023-08-04T01:58:07.251Z,31.74
2023-08-04T02:00:34.464Z,31.67
2023-08-04T02:03:01.822Z,31.75
2023-08-04T02:05:29.086Z,31.28
2023-08-04T02:07:56.364Z,31.98
2023-08-04T02:10:29.192Z,31.39
2023-08-04T02:12:56.531Z,32.16
2023-08-04T02:15:23.894Z,32.07
2023-08-04T02:17:51.253Z,31.92
2023-08-04T02:20:18.608Z,31.55
2023-08-04T02:22:46.469Z,31.48
2023-08-04T02:25:13.807Z,31.10
2023-08-04T02:27:40.996Z,31.38
2023-08-04T02:30:08.440Z,31.49
2023-08-04T02:32:35.701Z,31.10
2023-08-04T02:35:03.022Z,32.32
2023-08-04T02:37:30.260Z,32.01
2023-08-04T02:39:57.493Z,32.00
2023-08-04T02:42:25.773Z,31.95
2023-08-04T02:44:54.116Z,32.68
2023-08-04T02:47:21.445Z,32.25
2023-08-04T02:49:48.655Z,32.01
2023-08-04T02:52:17.420Z,31.76
2023-08-04T02:54:44.749Z,32.08
2023-08-04T02:57:12.248Z,31.67
2023-08-04T02:59:39.546Z,31.68
2023-08-04T03:02:07.959Z,31.69
2023-08-04T03:04:35.240Z,32.55
2023-08-04T03:07:02.514Z,31.90
2023-08-04T03:09:29.747Z,31.46
2023-08-04T03:11:57.615Z,31.63
2023-08-04T03:14:25.781Z,32.22
2023-08-04T03:16:53.203Z,31.67
2023-08-04T03:19:20.457Z,31.91
2023-08-04T03:21:47.829Z,32.59
2023-08-04T03:24:15.211Z,32.11
2023-08-04T03:26:42.476Z,32.07
2023-08-04T03:29:09.734Z,32.08
2023-08-04T03:31:37.024Z,31.64
2023-08-04T03:34:04.771Z,31.15
2023-08-04T03:36:32.377Z,31.28
2023-08-04T03:38:59.696Z,32.18
2023-08-04T03:41:26.921Z,32.14
2023-08-04T03:43:54.135Z,31.82
2023-08-04T03:46:21.368Z,31.94
2023-08-04T03:48:48.596Z,31.56
2023-08-04T03:51:18.983Z,31.16
2023-08-04T03:53:46.295Z,31.79
2023-08-04T03:56:13.494Z,31.77
2023-08-04T03:58:40.791Z,31.70
2023-08-04T04:01:08.116Z,32.28
2023-08-04T04:03:35.871Z,31.98
2023-08-04T04:06:03.290Z,31.45
2023-08-04T04:08:30.908Z,32.51
2023-08-04T04:10:58.264Z,32.51
2023-08-04T04:13:25.563Z,31.82
2023-08-04T04:15:52.783Z,31.68
2023-08-04T04:18:19.977Z,32.29
2023-08-04T04:20:47.360Z,32.25
2023-08-04T04:23:14.568Z,31.98
2023-08-04T04:25:41.860Z,31.47
2023-08-04T04:28:09.093Z,31.72
2023-08-04T04:30:36.426Z,31.81
2023-08-04T04:33:03.664Z,32.51
2023-08-04T04:35:30.965Z,32.50
2023-08-04T04:37:58.231Z,31.62
2023-08-04T04:40:25.597Z,32.17
2023-08-04T04:42:53.013Z,32.09
2023-08-04T04:45:20.281Z,32.01
2023-08-04T04:47:47.581Z,32.11
2023-08-04T04:50:14.880Z,32.03
2023-08-04T04:52:42.134Z,32.02
2023-08-04T04:55:09.598Z,32.19
2023-08-04T04:57:41.090Z,32.17
2023-08-04T05:00:09.240Z,32.23
2023-08-04T05:02:38.194Z,32.65
2023-08-04T05:05:05.713Z,32.48
2023-08-04T05:07:32.982Z,32.58
2023-08-04T05:10:00.228Z,32.28
2023-08-04T05:12:27.471Z,32.11
2023-08-04T05:14:54.754Z,32.92
2023-08-04T05:17:21.981Z,32.63
2023-08-04T05:19:49.234Z,32.80
2023-08-04T05:22:16.498Z,32.69
2023-08-04T05:24:44.091Z,32.61
2023-08-04T05:27:12.207Z,32.77
2023-08-04T05:29:41.795Z,32.76
2023-08-04T05:32:09.231Z,32.83
2023-08-04T05:34:36.487Z,32.49
2023-08-04T05:37:03.735Z,32.29
2023-08-04T05:39:31.012Z,32.66
2023-08-04T05:41:58.191Z,32.20
2023-08-04T05:44:25.460Z,31.73
2023-08-04T05:46:52.647Z,32.65
2023-08-04T05:49:19.994Z,31.95
2023-08-04T05:51:50.365Z,31.58
2023-08-04T05:54:18.249Z,32.19
2023-08-04T05:56:49.371Z,31.55
2023-08-04T05:59:16.941Z,31.33
2023-08-04T06:01:44.829Z,32.13
2023-08-04T06:04:12.057Z,31.87
2023-08-04T06:06:39.437Z,31.93
2023-08-04T06:09:09.626Z,31.72
2023-08-04T06:11:36.849Z,31.22
2023-08-04T06:14:52.215Z,31.83
2023-08-04T07:02:46.053Z,30.58
2023-08-04T07:05:13.437Z,31.24
2023-08-04T07:07:43.696Z,31.58
2023-08-04T07:10:17.678Z,30.69
2023-08-04T07:12:49.299Z,30.56
2023-08-04T07:15:19.402Z,31.46
2023-08-04T07:17:49.013Z,31.46
2023-08-04T07:20:20.008Z,31.83
2023-08-04T07:22:52.273Z,31.46
2023-08-04T07:25:22.130Z,31.43
2023-08-04T07:27:53.746Z,31.30
2023-08-04T07:30:23.876Z,31.65
2023-08-04T07:32:53.563Z,31.10
2023-08-04T07:35:22.531Z,31.22
2023-08-04T07:37:51.314Z,31.29
2023-08-04T07:40:20.093Z,31.01
2023-08-04T07:42:48.694Z,31.10
2023-08-04T07:45:19.096Z,31.02
2023-08-04T07:47:47.415Z,31.15
2023-08-04T07:50:15.362Z,31.33
2023-08-04T07:52:46.907Z,30.80
2023-08-04T07:55:15.746Z,30.95
2023-08-04T07:57:44.968Z,31.13
2023-08-04T08:00:12.880Z,30.84
2023-08-04T08:02:40.114Z,30.84
2023-08-04T08:05:09.226Z,31.19
2023-08-04T08:07:45.737Z,31.51
2023-08-04T08:10:15.146Z,31.62
2023-08-04T08:12:42.680Z,31.27
2023-08-04T08:15:10.097Z,31.33
2023-08-04T08:17:42.250Z,31.46
2023-08-04T08:20:09.717Z,31.13
2023-08-04T08:22:36.954Z,31.05
2023-08-04T08:25:04.276Z,30.82
2023-08-04T08:27:31.519Z,30.55
2023-08-04T08:29:58.789Z,30.01
2023-08-04T08:32:26.025Z,30.71
2023-08-04T08:34:53.220Z,31.09
2023-08-04T08:37:20.564Z,31.28
2023-08-04T08:39:47.782Z,31.21
2023-08-04T08:42:16.080Z,31.05
2023-08-04T08:44:43.362Z,30.68
2023-08-04T08:47:10.584Z,30.29
2023-08-04T08:49:45.383Z,30.33
2023-08-04T08:52:12.694Z,30.63
2023-08-04T08:54:39.935Z,30.61
2023-08-04T08:57:07.431Z,30.40
2023-08-04T08:59:34.771Z,30.44
2023-08-04T09:02:02.770Z,30.61
2023-08-04T09:04:34.134Z,29.88
2023-08-04T09:07:01.391Z,30.46
2023-08-04T09:09:29.108Z,30.67
2023-08-04T09:11:58.100Z,31.21
2023-08-04T09:14:25.571Z,31.25
2023-08-04T09:16:52.756Z,30.67
2023-08-04T09:19:19.967Z,30.59
2023-08-04T09:21:47.357Z,29.42
2023-08-04T09:24:16.742Z,30.64
2023-08-04T09:26:47.759Z,31.46
2023-08-04T09:29:15.507Z,31.30
2023-08-04T09:31:43.787Z,30.81
2023-08-04T09:34:12.043Z,31.47
2023-08-04T09:36:50.662Z,31.53
2023-08-04T09:42:23.555Z,31.32
2023-08-04T09:47:44.462Z,30.09
2023-08-04T09:50:18.885Z,30.54
2023-08-04T09:52:50.257Z,30.09
2023-08-04T09:56:00.750Z,30.93
2023-08-04T09:58:28.464Z,30.46
2023-08-04T10:00:59.745Z,30.67
2023-08-04T10:03:27.512Z,30.77
2023-08-04T10:05:56.648Z,31.06
2023-08-04T10:08:30.056Z,31.31
2023-08-04T10:11:12.591Z,30.57
2023-08-04T10:13:57.373Z,30.98
2023-08-04T10:16:34.968Z,30.85
2023-08-04T10:19:25.085Z,31.05
2023-08-04T10:21:56.100Z,31.71
2023-08-04T10:24:23.514Z,31.19
2023-08-04T10:27:04.522Z,31.25
2023-08-04T10:29:38.098Z,31.94
2023-08-04T10:32:16.092Z,31.66
2023-08-04T10:35:03.952Z,31.84
2023-08-04T10:37:46.077Z,31.38
2023-08-04T10:40:15.252Z,31.66
2023-08-04T10:43:17.906Z,31.40
2023-08-04T10:46:01.454Z,31.61
2023-08-04T10:51:03.345Z,31.42
2023-08-04T10:53:37.059Z,31.05
2023-08-04T10:56:09.946Z,31.42
2023-08-04T10:58:45.561Z,30.99
2023-08-04T11:01:52.308Z,30.51
2023-08-04T11:05:09.963Z,30.95
2023-08-04T11:07:46.217Z,31.16
2023-08-04T11:10:18.176Z,30.70
2023-08-04T11:12:51.577Z,30.68
2023-08-04T11:15:24.141Z,30.73
2023-08-04T11:17:58.704Z,31.02
2023-08-04T11:20:41.597Z,31.22
2023-08-04T11:23:37.748Z,31.83
2023-08-04T11:26:13.648Z,31.35
2023-08-04T11:28:54.803Z,31.51
2023-08-04T11:31:28.232Z,31.72
2023-08-04T11:34:08.335Z,31.02
2023-08-04T11:36:37.952Z,30.82
2023-08-04T11:39:10.579Z,30.86
2023-08-04T11:41:48.298Z,30.72
2023-08-04T11:44:18.774Z,30.46
2023-08-04T11:46:48.369Z,30.18
2023-08-04T11:49:18.234Z,30.64
2023-08-04T11:51:46.485Z,31.07
2023-08-04T11:54:23.602Z,30.79
2023-08-04T11:56:56.441Z,31.34
2023-08-04T11:59:24.632Z,30.33
2023-08-04T12:02:07.099Z,30.88
2023-08-04T12:04:35.438Z,31.34
2023-08-04T12:07:06.962Z,31.08
2023-08-04T12:09:34.732Z,30.98
2023-08-04T12:12:33.810Z,31.08
2023-08-04T12:15:21.753Z,31.22
2023-08-04T12:17:56.219Z,31.00
2023-08-04T12:20:48.652Z,30.91
2023-08-04T12:23:15.126Z,30.82
2023-08-04T12:25:42.600Z,30.51
2023-08-04T12:28:12.687Z,30.32
2023-08-04T12:30:42.514Z,30.81
2023-08-04T12:33:16.701Z,30.76
2023-08-04T12:35:44.078Z,31.20
2023-08-04T12:38:14.128Z,30.10
2023-08-04T12:40:41.766Z,31.24
2023-08-04T12:43:11.648Z,30.39
2023-08-04T12:45:42.141Z,29.95
2023-08-04T12:48:10.250Z,30.63
2023-08-04T12:50:53.242Z,30.87
2023-08-04T12:53:22.475Z,30.23
2023-08-04T12:55:49.963Z,30.51
2023-08-04T12:58:17.330Z,30.81
2023-08-04T13:00:44.655Z,31.00
2023-08-04T13:03:12.072Z,31.04
2023-08-04T13:05:45.984Z,31.10
2023-08-04T13:08:20.034Z,30.97
2023-08-04T13:10:48.756Z,30.17
2023-08-04T13:13:30.942Z,30.78
2023-08-04T13:16:05.245Z,30.55
2023-08-04T13:18:53.094Z,31.10
2023-08-04T13:21:28.674Z,30.96
2023-08-04T13:23:56.115Z,30.88
2023-08-04T13:26:24.642Z,30.93
2023-08-04T13:28:52.132Z,30.73
2023-08-04T13:31:19.537Z,30.72
2023-08-04T13:33:46.842Z,30.62
2023-08-04T13:36:14.248Z,31.16
2023-08-04T13:38:41.760Z,30.46
2023-08-04T13:41:09.794Z,30.32
2023-08-04T13:43:41.163Z,31.11
2023-08-04T13:46:13.938Z,30.48
2023-08-04T13:57:49.048Z,29.76
2023-08-04T14:00:16.493Z,29.93
2023-08-04T14:02:49.128Z,29.55
2023-08-04T14:05:39.045Z,29.58
2023-08-04T14:08:08.390Z,30.37
2023-08-04T14:10:42.885Z,29.88
2023-08-04T14:13:45.932Z,29.59
2023-08-04T14:16:30.724Z,28.91
2023-08-04T14:26:52.648Z,28.47
2023-08-04T14:29:20.434Z,28.90
2023-08-04T14:32:01.046Z,28.74
2023-08-04T14:34:41.927Z,28.19
2023-08-04T14:40:07.881Z,28.79
2023-08-04T14:42:38.284Z,28.54
2023-08-04T14:45:11.467Z,28.14
2023-08-04T14:47:39.005Z,28.39
2023-08-04T14:50:11.962Z,28.86
2023-08-04T14:52:39.508Z,28.92
2023-08-04T14:55:07.118Z,28.72
2023-08-04T14:57:34.530Z,28.58
2023-08-04T15:00:02.201Z,28.72
2023-08-04T15:02:29.744Z,28.31
2023-08-04T15:05:00.340Z,27.98
2023-08-04T15:07:29.045Z,28.10
2023-08-04T15:10:09.327Z,27.93
2023-08-04T15:12:36.740Z,28.14
2023-08-04T15:15:04.727Z,27.73
2023-08-04T15:17:32.327Z,28.42
2023-08-04T15:19:59.797Z,27.77
2023-08-04T15:22:27.136Z,28.34
2023-08-04T15:24:54.568Z,28.10
2023-08-04T15:27:21.911Z,28.22
2023-08-04T15:29:50.391Z,28.11
2023-08-04T15:32:20.330Z,27.85
2023-08-04T15:34:52.801Z,27.45
2023-08-04T15:37:27.589Z,27.82
2023-08-04T15:40:00.640Z,28.44
2023-08-04T15:42:29.236Z,28.68
2023-08-04T15:44:57.790Z,28.24
2023-08-04T15:47:28.163Z,28.48
2023-08-04T15:49:55.476Z,28.47
2023-08-04T15:52:26.383Z,28.44
2023-08-04T15:55:06.722Z,28.14
2023-08-04T15:57:40.823Z,28.31
2023-08-04T16:00:10.324Z,28.52
2023-08-04T16:02:37.585Z,28.86
2023-08-04T16:05:05.118Z,27.84
2023-08-04T16:07:32.784Z,27.86
2023-08-04T16:10:00.448Z,28.85
2023-08-04T16:12:32.240Z,28.91
2023-08-04T16:14:59.514Z,28.36
2023-08-04T16:17:26.766Z,28.66
2023-08-04T16:19:54.133Z,28.26
2023-08-04T16:22:21.408Z,28.38
2023-08-04T16:24:55.197Z,28.52
2023-08-04T16:27:22.483Z,28.51
2023-08-04T16:29:50.817Z,28.36
2023-08-04T16:32:18.227Z,27.82
2023-08-04T16:34:46.644Z,28.35
2023-08-04T16:37:13.913Z,28.31
2023-08-04T16:39:41.260Z,28.28
2023-08-04T16:42:08.507Z,28.32
2023-08-04T16:44:35.980Z,28.67
2023-08-04T16:47:03.848Z,28.29
2023-08-04T16:49:31.103Z,28.18
2023-08-04T16:51:58.459Z,28.22
2023-08-04T16:54:25.716Z,28.51
2023-08-04T16:56:53.033Z,28.43
2023-08-04T16:59:20.302Z,28.72
2023-08-04T17:01:47.616Z,29.14
2023-08-04T17:04:14.912Z,28.44
2023-08-04T17:06:42.276Z,28.63
2023-08-04T17:09:09.480Z,28.55
2023-08-04T17:11:41.002Z,28.68
2023-08-04T17:14:16.884Z,29.21
2023-08-04T17:16:44.331Z,28.56
2023-08-04T17:19:17.981Z,28.90
2023-08-04T17:21:45.461Z,28.93
2023-08-04T17:24:13.613Z,28.90
2023-08-04T17:26:43.529Z,28.77
2023-08-04T17:29:13.240Z,28.73
2023-08-04T17:31:45.325Z,28.90
2023-08-04T17:34:22.746Z,28.71
2023-08-04T17:36:50.366Z,28.64
2023-08-04T17:39:22.874Z,28.77
2023-08-04T17:41:56.396Z,28.33
2023-08-04T17:44:30.331Z,28.63
2023-08-04T17:46:58.519Z,29.12
2023-08-04T17:49:31.708Z,28.36
2023-08-04T17:52:02.053Z,28.36
2023-08-04T17:54:32.232Z,28.74
2023-08-04T17:57:02.277Z,28.73
2023-08-04T17:59:38.205Z,28.32
2023-08-04T18:02:05.886Z,28.58
2023-08-04T18:04:36.423Z,28.50
2023-08-04T18:07:03.853Z,28.86
2023-08-04T18:09:33.532Z,28.63
2023-08-04T18:12:01.178Z,28.21
2023-08-04T18:14:28.820Z,28.69
2023-08-04T18:17:02.635Z,28.30
2023-08-04T18:19:35.390Z,29.03
2023-08-04T18:22:07.258Z,28.49
2023-08-04T18:24:39.740Z,28.74
2023-08-04T18:27:12.788Z,28.38
2023-08-04T18:29:50.875Z,28.56
2023-08-04T18:32:24.743Z,28.89
2023-08-04T18:34:52.544Z,28.83
2023-08-04T18:37:19.983Z,29.16
2023-08-04T18:39:47.290Z,29.07
2023-08-04T18:42:15.609Z,28.99
2023-08-04T18:44:45.666Z,28.39
2023-08-04T18:47:13.040Z,28.69
2023-08-04T18:49:40.542Z,29.04
2023-08-04T18:52:15.982Z,28.60
2023-08-04T18:54:47.692Z,28.82
2023-08-04T18:57:15.075Z,29.02
2023-08-04T18:59:42.394Z,28.97
2023-08-04T19:02:10.079Z,29.26
2023-08-04T19:04:37.553Z,29.32
2023-08-04T19:07:05.112Z,29.72
2023-08-04T19:09:32.386Z,29.04
2023-08-04T19:11:59.674Z,29.58
2023-08-04T19:14:26.927Z,29.56
2023-08-04T19:16:55.207Z,29.24
2023-08-04T19:19:25.783Z,29.51
2023-08-04T19:21:53.036Z,30.06
2023-08-04T19:24:20.334Z,29.50
2023-08-04T19:26:47.755Z,29.75
2023-08-04T19:29:15.276Z,29.82
2023-08-04T19:31:42.544Z,29.78
2023-08-04T19:34:09.895Z,29.26
2023-08-04T19:36:37.141Z,30.04
2023-08-04T19:39:04.502Z,30.66
2023-08-04T19:41:46.025Z,30.41
2023-08-04T19:44:19.853Z,30.03
2023-08-04T19:46:47.848Z,29.49
2023-08-04T19:49:15.415Z,29.70
2023-08-04T19:51:43.123Z,29.89
2023-08-04T19:54:19.442Z,29.94
2023-08-04T19:56:48.443Z,30.05
2023-08-04T19:59:25.365Z,29.26
2023-08-04T20:01:52.700Z,29.68
2023-08-04T20:04:25.652Z,29.50
2023-08-04T20:06:56.610Z,29.74
2023-08-04T20:09:28.195Z,29.88
2023-08-04T20:11:58.207Z,30.21
2023-08-04T20:14:48.769Z,30.16
2023-08-04T20:21:05.641Z,30.21
2023-08-04T20:23:46.245Z,30.12
2023-08-04T20:26:31.433Z,30.15
2023-08-04T20:29:06.336Z,29.93
2023-08-04T20:31:33.919Z,29.42
2023-08-04T20:34:06.619Z,29.35
2023-08-04T20:36:44.504Z,30.33
2023-08-04T20:39:17.417Z,30.28
2023-08-04T20:41:44.843Z,29.88
2023-08-04T20:44:13.571Z,29.40
2023-08-04T20:46:42.856Z,29.25
2023-08-04T20:49:10.612Z,29.83
2023-08-04T20:51:39.121Z,29.53
2023-08-04T20:54:06.821Z,30.01
2023-08-04T20:56:34.336Z,29.29
2023-08-04T20:59:03.898Z,29.42
2023-08-04T21:01:34.283Z,29.84
2023-08-04T21:04:01.590Z,30.11
2023-08-04T21:06:30.125Z,30.01
2023-08-04T21:08:57.369Z,29.54
2023-08-04T21:11:25.334Z,29.67
2023-08-04T21:13:53.418Z,29.84
2023-08-04T21:16:21.149Z,30.02
2023-08-04T21:18:48.916Z,29.46
2023-08-04T21:21:16.187Z,29.89
2023-08-04T21:23:46.343Z,30.11
2023-08-04T21:26:13.571Z,30.01
2023-08-04T21:28:40.862Z,30.13
2023-08-04T21:31:08.192Z,29.69
2023-08-04T21:33:35.900Z,29.64
2023-08-04T21:36:04.279Z,30.52
2023-08-04T21:38:31.967Z,30.41
2023-08-04T21:41:03.495Z,29.94
2023-08-04T21:43:30.821Z,29.60
2023-08-04T21:46:07.588Z,29.51
2023-08-04T21:48:35.060Z,30.21
2023-08-04T21:51:17.586Z,30.31
2023-08-04T21:53:44.913Z,29.62
2023-08-04T21:56:12.336Z,30.19
2023-08-04T21:58:42.001Z,29.49
2023-08-04T22:01:10.704Z,29.90
2023-08-04T22:03:38.582Z,29.65
2023-08-04T22:06:06.754Z,29.66
2023-08-04T22:08:36.396Z,29.71
2023-08-04T22:11:09.309Z,29.59
2023-08-04T22:13:37.904Z,29.88
2023-08-04T22:16:07.813Z,30.14
2023-08-04T22:18:38.138Z,30.31
2023-08-04T22:21:08.309Z,29.85
2023-08-04T22:23:37.366Z,30.09
2023-08-04T22:26:06.699Z,30.52
2023-08-04T22:28:36.216Z,30.44
2023-08-04T22:31:03.831Z,30.51
2023-08-04T22:33:31.397Z,30.42
2023-08-04T22:35:59.382Z,30.05
2023-08-04T22:38:27.313Z,30.69
2023-08-04T22:40:58.814Z,30.69
2023-08-04T22:43:26.550Z,30.68
2023-08-04T22:45:57.003Z,30.72
2023-08-04T22:48:25.303Z,30.46
2023-08-04T22:50:54.418Z,29.97
2023-08-04T22:53:26.610Z,30.33
2023-08-04T22:55:59.040Z,30.60
2023-08-04T22:58:29.039Z,30.37
2023-08-04T23:00:57.635Z,30.33
2023-08-04T23:03:25.298Z,30.63
2023-08-04T23:05:52.987Z,30.74
2023-08-04T23:08:22.276Z,30.84
2023-08-04T23:10:58.941Z,30.80
2023-08-04T23:13:28.865Z,30.34
2023-08-04T23:16:00.166Z,30.20
2023-08-04T23:18:27.716Z,29.93
2023-08-04T23:20:55.154Z,29.97
2023-08-04T23:23:24.422Z,30.76
2023-08-04T23:25:52.607Z,30.32
2023-08-04T23:28:20.199Z,30.87
2023-08-04T23:30:48.346Z,30.69
2023-08-04T23:33:16.864Z,30.67
2023-08-04T23:35:50.270Z,30.50
2023-08-04T23:38:17.873Z,29.92
2023-08-04T23:40:45.372Z,30.00
2023-08-04T23:43:12.686Z,30.33
2023-08-04T23:45:39.939Z,30.18
2023-08-04T23:48:07.219Z,30.73
2023-08-04T23:50:36.477Z,30.46
2023-08-04T23:53:03.822Z,30.36
2023-08-04T23:55:31.111Z,30.87
2023-08-04T23:57:58.428Z,29.91
